Time;durP1;ratioP1;P1;durP2;ratioP2;P2;SDS_P1;SDS_P2;PMS_P1;PMS_P2;Temp;Humidity;BMP_temperature;BMP_pressure;BME280_temperature;BME280_humidity;BME280_pressure;Samples;Min_cycle;Max_cycle;Signal;HPM_P1;HPM_P2
2023/05/15 00:00:18;;;;;;;0.20;0.20;;;11.50;99.90;;;;;;4911009;29;20702;-73
2023/05/15 00:02:44;;;;;;;0.10;0.10;;;;;;;;;;4922559;29;20047;-73
2023/05/15 00:05:11;;;;;;;0.20;0.20;;;11.50;99.90;;;;;;4942946;29;20048;-72
2023/05/15 00:07:37;;;;;;;0.13;0.13;;;11.50;99.90;;;;;;4916093;29;20043;-72
2023/05/15 00:10:03;;;;;;;0.10;0.10;;;11.50;99.90;;;;;;4913316;29;20039;-72
2023/05/15 00:12:30;;;;;;;0.10;0.10;;;11.50;99.90;;;;;;4928450;29;20606;-72
2023/05/15 00:14:55;;;;;;;0.10;0.10;;;11.50;99.90;;;;;;4930738;29;20044;-73
2023/05/15 00:17:21;;;;;;;0.20;0.20;;;11.50;99.90;;;;;;4910435;29;20040;-73
2023/05/15 00:19:47;;;;;;;0.10;0.10;;;11.50;99.90;;;;;;4909891;29;20182;-72
2023/05/15 00:22:13;;;;;;;0.10;0.10;;;11.40;99.90;;;;;;4925780;29;20040;-72
2023/05/15 00:24:39;;;;;;;0.17;0.17;;;11.60;99.90;;;;;;4914978;29;20055;-73
2023/05/15 00:27:05;;;;;;;0.15;0.15;;;11.40;99.90;;;;;;4926262;29;20051;-73
2023/05/15 00:29:33;;;;;;;0.20;0.20;;;11.40;99.90;;;;;;4908628;29;20047;-73
2023/05/15 00:31:58;;;;;;;0.10;0.10;;;11.40;99.90;;;;;;4929354;29;20055;-73
2023/05/15 00:34:24;;;;;;;0.10;0.10;;;11.40;99.90;;;;;;4931454;29;20326;-73
2023/05/15 00:36:53;;;;;;;0.20;0.20;;;11.40;99.90;;;;;;4929933;29;20492;-73
2023/05/15 00:39:18;;;;;;;0.10;0.10;;;11.40;99.90;;;;;;4921139;29;20050;-73
2023/05/15 00:41:46;;;;;;;0.20;0.20;;;11.40;99.90;;;;;;4914035;29;20054;-73
2023/05/15 00:44:12;;;;;;;0.10;0.10;;;11.40;99.90;;;;;;4929787;29;20115;-72
2023/05/15 00:46:39;;;;;;;0.17;0.17;;;11.40;99.90;;;;;;4913715;29;20056;-72
2023/05/15 00:49:05;;;;;;;0.20;0.20;;;11.40;99.90;;;;;;4928618;29;20512;-73
2023/05/15 00:51:31;;;;;;;0.20;0.20;;;11.40;99.90;;;;;;4909957;29;20051;-72
2023/05/15 00:53:57;;;;;;;0.10;0.10;;;11.40;99.90;;;;;;4927592;29;20508;-73
2023/05/15 00:56:24;;;;;;;0.20;0.20;;;11.40;99.90;;;;;;4930307;29;20064;-73
2023/05/15 00:58:50;;;;;;;0.10;0.10;;;11.40;99.90;;;;;;4926100;29;20408;-73
2023/05/15 01:01:17;;;;;;;0.20;0.20;;;11.40;99.90;;;;;;4928096;29;20083;-73
2023/05/15 01:03:43;;;;;;;0.10;0.10;;;11.40;99.90;;;;;;4928265;29;20048;-73
2023/05/15 01:06:09;;;;;;;0.10;0.10;;;11.40;99.90;;;;;;4907570;29;20051;-73
2023/05/15 01:08:43;;;;;;;0.20;0.20;;;11.40;99.90;;;;;;4929040;29;20036;-73
2023/05/15 01:11:10;;;;;;;0.20;0.20;;;11.40;99.90;;;;;;4903433;29;20055;-73
2023/05/15 01:13:45;;;;;;;0.10;0.10;;;11.40;99.90;;;;;;4927719;29;20050;-73
2023/05/15 01:16:11;;;;;;;0.10;0.10;;;11.40;99.90;;;;;;4909803;29;20054;-73
2023/05/15 01:18:36;;;;;;;0.10;0.10;;;11.40;99.90;;;;;;4926868;29;20579;-73
2023/05/15 01:21:24;;;;;;;0.20;0.20;;;11.30;99.90;;;;;;4927264;29;20048;-72
2023/05/15 01:24:31;;;;;;;0.20;0.20;;;11.30;99.90;;;;;;4926479;29;20208;-73
2023/05/15 01:27:19;;;;;;;0.20;0.20;;;11.30;99.90;;;;;;4928216;29;20040;-73
2023/05/15 01:30:08;;;;;;;0.20;0.20;;;11.30;99.90;;;;;;4924785;29;20063;-72
2023/05/15 01:32:59;;;;;;;0.20;0.20;;;11.30;99.90;;;;;;4922808;29;20167;-72
2023/05/15 01:35:41;;;;;;;0.20;0.20;;;11.30;99.90;;;;;;4918316;29;20679;-73
2023/05/15 01:38:35;;;;;;;0.20;0.20;;;11.30;99.90;;;;;;4910277;29;20067;-73
2023/05/15 01:41:12;;;;;;;0.20;0.20;;;11.30;99.90;;;;;;4941302;29;20063;-73
2023/05/15 01:43:41;;;;;;;0.20;0.20;;;11.20;99.90;;;;;;4937319;29;20052;-72
2023/05/15 01:46:08;;;;;;;0.20;0.20;;;11.20;99.90;;;;;;4927502;29;20571;-73
2023/05/15 01:48:35;;;;;;;0.20;0.20;;;11.20;99.90;;;;;;4926937;29;20040;-73
2023/05/15 01:51:04;;;;;;;0.10;0.10;;;10.90;99.90;;;;;;4927858;29;20044;-73
2023/05/15 01:53:32;;;;;;;0.10;0.10;;;11.20;99.90;;;;;;4910423;29;20056;-73
2023/05/15 01:55:58;;;;;;;0.20;0.20;;;11.00;99.90;;;;;;4923915;29;20142;-73
2023/05/15 01:58:25;;;;;;;0.10;0.10;;;11.10;99.90;;;;;;4925087;29;20039;-73
2023/05/15 02:00:52;;;;;;;0.20;0.20;;;11.00;99.90;;;;;;4925846;29;20083;-73
2023/05/15 02:03:19;;;;;;;0.20;0.20;;;11.00;99.90;;;;;;4905495;29;20052;-73
2023/05/15 02:05:46;;;;;;;0.10;0.10;;;11.00;99.90;;;;;;4930470;29;20405;-73
2023/05/15 02:08:12;;;;;;;0.10;0.10;;;11.00;99.90;;;;;;4913509;29;20126;-73
2023/05/15 02:10:38;;;;;;;0.20;0.20;;;11.00;99.90;;;;;;4912738;29;20131;-74
2023/05/15 02:13:08;;;;;;;0.20;0.20;;;11.00;99.90;;;;;;4930721;29;20043;-73
2023/05/15 02:15:35;;;;;;;0.20;0.20;;;10.90;99.90;;;;;;4932056;29;20523;-73
2023/05/15 02:18:01;;;;;;;0.10;0.10;;;10.80;99.90;;;;;;4930999;29;20095;-73
2023/05/15 02:20:27;;;;;;;0.10;0.10;;;10.80;99.90;;;;;;4928795;29;20039;-73
2023/05/15 02:22:52;;;;;;;0.10;0.10;;;10.70;99.90;;;;;;4931967;29;20095;-73
2023/05/15 02:25:25;;;;;;;0.15;0.15;;;10.70;99.90;;;;;;4933984;29;20520;-73
2023/05/15 02:27:58;;;;;;;0.20;0.20;;;10.80;99.90;;;;;;4934656;29;20058;-73
2023/05/15 02:30:41;;;;;;;0.20;0.20;;;10.70;99.90;;;;;;4930008;29;20499;-73
2023/05/15 02:33:17;;;;;;;0.20;0.20;;;10.70;99.90;;;;;;4934618;29;20071;-74
2023/05/15 02:35:58;;;;;;;0.15;0.15;;;10.70;99.90;;;;;;4931933;29;20140;-73
2023/05/15 02:38:45;;;;;;;0.20;0.20;;;10.70;99.90;;;;;;4928988;29;20079;-73
2023/05/15 02:41:12;;;;;;;0.17;0.17;;;10.70;99.90;;;;;;4908738;29;20382;-73
2023/05/15 02:43:39;;;;;;;0.20;0.20;;;10.70;99.90;;;;;;4930780;29;20043;-73
2023/05/15 02:46:06;;;;;;;0.10;0.10;;;10.70;99.90;;;;;;4933154;29;20039;-73
2023/05/15 02:48:36;;;;;;;0.10;0.10;;;10.70;99.90;;;;;;4932814;29;20095;-73
2023/05/15 02:51:02;;;;;;;0.20;0.20;;;10.70;99.90;;;;;;4931179;29;20050;-73
2023/05/15 02:53:28;;;;;;;0.20;0.20;;;10.60;99.90;;;;;;4932862;29;20503;-73
2023/05/15 02:55:54;;;;;;;0.20;0.20;;;10.60;99.90;;;;;;4915951;29;20060;-73
2023/05/15 02:58:20;;;;;;;0.20;0.20;;;10.60;99.90;;;;;;4915721;29;20082;-73
2023/05/15 03:00:45;;;;;;;0.10;0.10;;;10.60;99.90;;;;;;4906758;29;20063;-73
2023/05/15 03:03:11;;;;;;;0.10;0.10;;;10.50;99.90;;;;;;4933578;29;20106;-74
2023/05/15 03:05:36;;;;;;;0.10;0.10;;;10.50;99.90;;;;;;4914458;29;20508;-73
2023/05/15 03:08:02;;;;;;;0.15;0.15;;;10.50;99.90;;;;;;4916927;29;20047;-73
2023/05/15 03:10:28;;;;;;;0.20;0.20;;;10.50;99.90;;;;;;4931590;29;20511;-73
2023/05/15 03:12:57;;;;;;;0.17;0.17;;;10.50;99.90;;;;;;4928621;29;20040;-73
2023/05/15 03:15:22;;;;;;;0.20;0.20;;;10.50;99.90;;;;;;4926566;29;20514;-73
2023/05/15 03:17:48;;;;;;;0.10;0.10;;;10.40;99.90;;;;;;4933050;29;20043;-73
2023/05/15 03:20:14;;;;;;;0.20;0.20;;;10.40;99.90;;;;;;4928483;29;20024;-74
2023/05/15 03:22:43;;;;;;;0.85;0.50;;;10.50;99.90;;;;;;4933387;29;20086;-73
2023/05/15 03:25:10;;;;;;;0.20;0.20;;;10.40;99.90;;;;;;4924402;29;20646;-73
2023/05/15 03:27:36;;;;;;;0.20;0.20;;;10.30;99.90;;;;;;4911657;29;20044;-72
2023/05/15 03:30:03;;;;;;;0.10;0.10;;;10.40;99.90;;;;;;4928933;29;20047;-73
2023/05/15 03:32:28;;;;;;;0.10;0.10;;;10.30;99.90;;;;;;4913824;29;20127;-74
2023/05/15 03:34:54;;;;;;;0.30;0.30;;;10.30;99.90;;;;;;4932509;29;20140;-73
2023/05/15 03:37:20;;;;;;;0.20;0.20;;;10.30;99.90;;;;;;4931893;29;20480;-73
2023/05/15 03:39:45;;;;;;;0.13;0.13;;;10.20;99.90;;;;;;4912486;29;20362;-73
2023/05/15 03:42:11;;;;;;;0.13;0.13;;;10.20;99.90;;;;;;4910989;29;20480;-72
2023/05/15 03:44:37;;;;;;;0.20;0.20;;;10.20;99.90;;;;;;4917079;29;20087;-74
2023/05/15 03:47:03;;;;;;;0.20;0.20;;;10.20;99.90;;;;;;4929675;29;20090;-73
2023/05/15 03:49:28;;;;;;;0.20;0.20;;;10.20;99.90;;;;;;4931219;29;20088;-73
2023/05/15 03:51:55;;;;;;;0.20;0.20;;;10.10;99.90;;;;;;4928756;29;20098;-73
2023/05/15 03:54:24;;;;;;;0.20;0.20;;;10.10;99.90;;;;;;4923759;29;20129;-73
2023/05/15 03:56:50;;;;;;;0.20;0.20;;;10.10;99.90;;;;;;4912446;29;20051;-74
2023/05/15 03:59:22;;;;;;;0.20;0.20;;;10.30;99.90;;;;;;4929176;29;20040;-73
2023/05/15 04:01:47;;;;;;;0.20;0.20;;;10.10;99.90;;;;;;4930324;29;20382;-73
2023/05/15 04:04:13;;;;;;;0.20;0.20;;;10.20;99.90;;;;;;4914663;29;20067;-73
2023/05/15 04:06:39;;;;;;;0.20;0.20;;;10.10;99.90;;;;;;4932775;29;20055;-73
2023/05/15 04:09:04;;;;;;;0.10;0.10;;;10.10;99.90;;;;;;4930857;29;20043;-73
2023/05/15 04:11:30;;;;;;;0.20;0.20;;;10.10;99.90;;;;;;4923683;29;20441;-73
2023/05/15 04:13:56;;;;;;;0.20;0.20;;;10.10;99.90;;;;;;4930976;29;20488;-73
2023/05/15 04:16:21;;;;;;;0.20;0.20;;;10.20;99.90;;;;;;4913113;29;20071;-74
2023/05/15 04:18:47;;;;;;;0.10;0.10;;;10.20;99.90;;;;;;4933039;29;20070;-74
2023/05/15 04:21:13;;;;;;;0.20;0.20;;;10.20;99.90;;;;;;4928156;29;20577;-73
2023/05/15 04:23:40;;;;;;;0.20;0.20;;;10.20;99.90;;;;;;4925531;29;20052;-73
2023/05/15 04:26:07;;;;;;;0.13;0.13;;;10.30;99.90;;;;;;4927509;29;20055;-73
2023/05/15 04:28:33;;;;;;;0.17;0.17;;;10.20;99.90;;;;;;4931460;29;20051;-73
2023/05/15 04:30:58;;;;;;;0.10;0.10;;;10.30;99.90;;;;;;4924813;29;20047;-73
2023/05/15 04:33:24;;;;;;;0.15;0.15;;;10.40;99.90;;;;;;4930913;29;20182;-73
2023/05/15 04:35:51;;;;;;;0.20;0.20;;;10.30;99.90;;;;;;4912114;29;20044;-73
2023/05/15 04:38:16;;;;;;;0.20;0.20;;;10.40;99.90;;;;;;4931163;29;20863;-73
2023/05/15 04:40:43;;;;;;;0.10;0.10;;;10.40;99.90;;;;;;4927625;29;20143;-73
2023/05/15 04:43:08;;;;;;;0.20;0.20;;;10.40;99.90;;;;;;4924958;29;20404;-74
2023/05/15 04:45:37;;;;;;;0.10;0.10;;;10.40;99.90;;;;;;4914431;29;20047;-73
2023/05/15 04:48:03;;;;;;;0.20;0.20;;;10.50;99.90;;;;;;4930936;29;20070;-73
2023/05/15 04:50:29;;;;;;;0.20;0.20;;;10.50;99.90;;;;;;4928818;29;20158;-74
2023/05/15 04:52:54;;;;;;;0.20;0.20;;;10.50;99.90;;;;;;4930294;29;20056;-73
2023/05/15 04:55:26;;;;;;;0.10;0.10;;;10.60;99.90;;;;;;4934029;29;20036;-74
2023/05/15 04:57:55;;;;;;;0.20;0.20;;;10.60;99.90;;;;;;4944881;29;20039;-73
2023/05/15 05:00:20;;;;;;;0.13;0.13;;;10.60;99.90;;;;;;4927344;29;20059;-73
2023/05/15 05:02:46;;;;;;;0.20;0.20;;;10.60;99.90;;;;;;4930809;29;20421;-73
2023/05/15 05:05:13;;;;;;;0.20;0.20;;;10.80;99.90;;;;;;4911436;29;20114;-73
2023/05/15 05:07:39;;;;;;;0.20;0.20;;;10.70;99.90;;;;;;4929621;29;20071;-73
2023/05/15 05:10:05;;;;;;;0.20;0.20;;;10.70;99.90;;;;;;4929650;29;20040;-73
2023/05/15 05:12:34;;;;;;;0.10;0.10;;;10.70;99.90;;;;;;4929782;29;20067;-73
2023/05/15 05:14:59;;;;;;;0.20;0.20;;;10.80;99.90;;;;;;4923926;29;20514;-73
2023/05/15 05:17:25;;;;;;;0.10;0.10;;;10.80;99.90;;;;;;4913422;29;20047;-73
2023/05/15 05:19:51;;;;;;;0.10;0.10;;;10.80;99.90;;;;;;4930908;29;20059;-73
2023/05/15 05:22:16;;;;;;;0.20;0.20;;;10.80;99.90;;;;;;4912572;29;20715;-73
2023/05/15 05:24:42;;;;;;;0.20;0.20;;;10.80;99.90;;;;;;4912595;29;20486;-73
2023/05/15 05:27:07;;;;;;;0.20;0.20;;;10.80;99.90;;;;;;4929141;29;20521;-73
2023/05/15 05:29:33;;;;;;;0.20;0.20;;;10.80;99.90;;;;;;4925180;29;20146;-73
2023/05/15 05:32:00;;;;;;;0.10;0.10;;;10.90;99.90;;;;;;4927683;29;20176;-73
2023/05/15 05:34:25;;;;;;;0.20;0.20;;;10.90;99.90;;;;;;4927779;29;20036;-73
2023/05/15 05:36:51;;;;;;;0.20;0.20;;;11.00;99.90;;;;;;4928187;29;20040;-73
2023/05/15 05:39:18;;;;;;;0.20;0.20;;;11.00;99.90;;;;;;4925825;29;20039;-73
2023/05/15 05:41:44;;;;;;;0.20;0.20;;;11.10;99.90;;;;;;4927700;29;20054;-73
2023/05/15 05:44:10;;;;;;;0.20;0.20;;;11.10;99.90;;;;;;4928540;29;20040;-73
2023/05/15 05:46:36;;;;;;;0.20;0.20;;;11.10;99.90;;;;;;4926781;29;20084;-73
2023/05/15 05:49:01;;;;;;;0.20;0.20;;;11.20;99.90;;;;;;4932531;29;20134;-74
2023/05/15 05:51:37;;;;;;;0.10;0.10;;;11.20;99.90;;;;;;4933425;29;20032;-73
2023/05/15 05:54:03;;;;;;;0.10;0.10;;;11.30;99.90;;;;;;4909817;29;20060;-73
2023/05/15 05:56:29;;;;;;;0.10;0.10;;;11.30;99.90;;;;;;4909847;29;20571;-73
2023/05/15 05:58:55;;;;;;;0.10;0.10;;;11.40;99.90;;;;;;4912860;29;20055;-73
2023/05/15 06:01:21;;;;;;;0.20;0.20;;;11.40;99.90;;;;;;4911791;29;20102;-73
2023/05/15 06:03:49;;;;;;;0.20;0.20;;;11.50;99.90;;;;;;4911445;29;20060;-73
2023/05/15 06:06:15;;;;;;;0.10;0.10;;;11.50;99.90;;;;;;4911835;29;20195;-73
2023/05/15 06:08:43;;;;;;;0.20;0.20;;;11.60;99.90;;;;;;4913695;29;20127;-73
2023/05/15 06:11:08;;;;;;;0.20;0.20;;;11.60;99.90;;;;;;4908171;29;20078;-73
2023/05/15 06:13:34;;;;;;;0.10;0.10;;;11.60;99.90;;;;;;4911437;29;20040;-73
2023/05/15 06:16:00;;;;;;;0.20;0.20;;;11.70;99.90;;;;;;4910131;29;20066;-73
2023/05/15 06:18:26;;;;;;;0.20;0.20;;;11.70;99.90;;;;;;4910248;29;20033;-73
2023/05/15 06:20:52;;;;;;;0.20;0.20;;;11.80;99.90;;;;;;4912790;29;20104;-73
2023/05/15 06:23:18;;;;;;;0.20;0.20;;;11.90;99.90;;;;;;4913437;29;20501;-72
2023/05/15 06:25:46;;;;;;;0.20;0.20;;;11.90;99.90;;;;;;4913543;29;20056;-72
2023/05/15 06:28:11;;;;;;;0.10;0.10;;;12.00;99.90;;;;;;4906088;29;20396;-73
2023/05/15 06:30:40;;;;;;;0.15;0.15;;;12.10;99.90;;;;;;4905960;29;20055;-84
2023/05/15 06:33:06;;;;;;;0.10;0.10;;;12.30;99.90;;;;;;4978553;23;20051;-82
2023/05/15 06:38:25;;;;;;;0.10;0.10;;;12.30;99.90;;;;;;5004880;23;20494;-83
2023/05/15 06:40:51;;;;;;;0.10;0.10;;;12.40;99.90;;;;;;4973360;28;20193;-82
2023/05/15 06:43:16;;;;;;;0.10;0.10;;;12.50;99.90;;;;;;4967840;28;20058;-83
2023/05/15 06:45:42;;;;;;;0.10;0.10;;;12.50;99.90;;;;;;4974828;28;20050;-82
2023/05/15 06:48:07;;;;;;;0.10;0.10;;;12.60;99.90;;;;;;4998058;28;20446;-82
2023/05/15 06:50:33;;;;;;;0.20;0.20;;;12.60;99.90;;;;;;5008516;28;20046;-85
2023/05/15 06:53:00;;;;;;;0.20;0.20;;;12.70;99.90;;;;;;4988594;28;20507;-84
2023/05/15 06:55:25;;;;;;;0.15;0.15;;;12.70;99.90;;;;;;4976506;28;20058;-82
2023/05/15 06:57:51;;;;;;;0.10;0.10;;;12.80;99.90;;;;;;4986529;28;20038;-84
2023/05/15 07:00:37;;;;;;;0.20;0.20;;;12.90;99.90;;;;;;4997400;28;20107;-81
2023/05/15 07:03:02;;;;;;;0.10;0.10;;;12.90;99.90;;;;;;4991101;28;20465;-82
2023/05/15 07:05:28;;;;;;;0.17;0.17;;;12.90;99.90;;;;;;4973659;28;20056;-82
2023/05/15 07:07:54;;;;;;;0.20;0.20;;;12.90;99.90;;;;;;4974254;28;20402;-83
2023/05/15 07:10:19;;;;;;;0.15;0.15;;;12.90;99.90;;;;;;4986489;28;20487;-84
2023/05/15 07:12:45;;;;;;;0.20;0.20;;;12.90;99.90;;;;;;4984943;28;20042;-83
2023/05/15 07:15:11;;;;;;;0.20;0.20;;;12.90;99.90;;;;;;4982253;28;20050;-81
2023/05/15 07:17:36;;;;;;;0.10;0.10;;;12.90;99.90;;;;;;4982921;28;20093;-79
2023/05/15 07:20:04;;;;;;;0.17;0.17;;;13.20;99.90;;;;;;4965942;28;20127;-78
2023/05/15 07:22:30;;;;;;;0.20;0.20;;;12.80;99.90;;;;;;4989538;28;20054;-80
2023/05/15 07:24:56;;;;;;;0.10;0.10;;;12.80;99.90;;;;;;4985492;28;20096;-79
2023/05/15 07:27:22;;;;;;;0.13;0.13;;;12.70;99.90;;;;;;4974434;28;20054;-80
2023/05/15 07:29:47;;;;;;;0.10;0.10;;;12.90;99.90;;;;;;4969403;28;20186;-80
2023/05/15 07:32:13;;;;;;;0.15;0.15;;;12.90;99.90;;;;;;4969231;28;20070;-79
2023/05/15 07:34:42;;;;;;;0.15;0.15;;;12.90;99.90;;;;;;4986005;28;20042;-82
2023/05/15 07:37:08;;;;;;;0.20;0.20;;;13.00;99.90;;;;;;4975224;28;20058;-81
2023/05/15 07:39:34;;;;;;;0.10;0.10;;;13.00;99.90;;;;;;4974787;28;20055;-80
2023/05/15 07:42:00;;;;;;;0.10;0.10;;;13.10;99.90;;;;;;4975911;28;20108;-81
2023/05/15 07:44:25;;;;;;;0.10;0.10;;;13.10;99.90;;;;;;4970962;28;20057;-82
2023/05/15 07:46:51;;;;;;;0.10;0.10;;;13.10;99.90;;;;;;4989956;28;20078;-83
2023/05/15 07:49:17;;;;;;;0.10;0.10;;;13.10;99.90;;;;;;4989517;28;20120;-81
2023/05/15 07:51:42;;;;;;;0.10;0.10;;;13.20;99.90;;;;;;4990231;28;20046;-81
2023/05/15 07:54:08;;;;;;;0.20;0.20;;;13.20;99.90;;;;;;4978679;28;20486;-81
2023/05/15 07:56:33;;;;;;;0.20;0.20;;;13.20;99.90;;;;;;4986943;28;20042;-81
2023/05/15 07:58:59;;;;;;;0.20;0.20;;;13.20;99.90;;;;;;4960447;28;20061;-82
2023/05/15 08:01:25;;;;;;;0.20;0.20;;;13.10;99.90;;;;;;4969305;28;20045;-82
2023/05/15 08:03:50;;;;;;;0.10;0.10;;;13.20;99.90;;;;;;4985185;28;20827;-82
2023/05/15 08:06:16;;;;;;;0.10;0.10;;;13.20;99.90;;;;;;4968186;28;20051;-82
2023/05/15 08:08:41;;;;;;;0.10;0.10;;;13.30;99.90;;;;;;4960634;28;20113;-82
2023/05/15 08:11:07;;;;;;;0.10;0.10;;;13.30;99.90;;;;;;4984824;28;20039;-81
2023/05/15 08:13:38;;;;;;;0.10;0.10;;;13.40;99.90;;;;;;5001675;28;20043;-82
2023/05/15 08:16:07;;;;;;;0.20;0.20;;;13.40;99.90;;;;;;4991318;28;20695;-82
2023/05/15 08:18:33;;;;;;;0.17;0.17;;;13.40;99.90;;;;;;4999276;28;20098;-83
2023/05/15 08:20:58;;;;;;;0.10;0.10;;;13.40;99.90;;;;;;4965351;28;20073;-82
2023/05/15 08:23:24;;;;;;;0.10;0.10;;;13.50;99.90;;;;;;4985484;28;20054;-81
2023/05/15 08:25:49;;;;;;;0.20;0.20;;;13.60;99.90;;;;;;4982253;28;20053;-81
2023/05/15 08:28:18;;;;;;;0.20;0.20;;;13.60;99.90;;;;;;4963389;28;20039;-83
2023/05/15 08:30:44;;;;;;;0.10;0.10;;;13.70;99.90;;;;;;4985504;28;20057;-81
2023/05/15 08:33:09;;;;;;;0.20;0.20;;;13.90;99.90;;;;;;4971959;28;20435;-78
2023/05/15 08:35:35;;;;;;;0.20;0.20;;;13.70;99.90;;;;;;4987469;28;20046;-81
2023/05/15 08:38:02;;;;;;;0.10;0.10;;;13.80;99.90;;;;;;4965207;28;20077;-83
2023/05/15 08:40:27;;;;;;;0.10;0.10;;;13.80;99.90;;;;;;4990585;28;20046;-80
2023/05/15 08:42:55;;;;;;;0.10;0.10;;;13.70;99.90;;;;;;4967690;28;20042;-82
2023/05/15 08:45:21;;;;;;;0.10;0.10;;;13.80;99.90;;;;;;4960800;28;20046;-83
2023/05/15 08:47:47;;;;;;;0.10;0.10;;;13.80;99.90;;;;;;4984028;28;20053;-83
2023/05/15 08:50:15;;;;;;;0.10;0.10;;;13.80;99.90;;;;;;4984978;28;20046;-83
2023/05/15 08:52:44;;;;;;;0.20;0.20;;;13.90;99.90;;;;;;4969424;28;20507;-83
2023/05/15 08:55:10;;;;;;;0.10;0.10;;;13.90;99.90;;;;;;4965604;28;20042;-84
2023/05/15 08:57:37;;;;;;;0.20;0.20;;;14.00;99.90;;;;;;4984282;28;21521;-85
2023/05/15 09:00:16;;;;;;;0.20;0.20;;;14.00;99.90;;;;;;4973772;28;20081;-84
2023/05/15 09:02:42;;;;;;;0.20;0.20;;;14.00;99.90;;;;;;4969325;28;20051;-85
2023/05/15 09:05:08;;;;;;;0.20;0.20;;;14.10;99.90;;;;;;4980050;28;20049;-84
2023/05/15 09:07:35;;;;;;;0.20;0.20;;;14.10;99.90;;;;;;4955059;28;20047;-84
2023/05/15 09:10:02;;;;;;;0.20;0.20;;;14.10;99.90;;;;;;4959596;28;20060;-86
2023/05/15 09:12:33;;;;;;;0.10;0.10;;;14.10;99.90;;;;;;4979825;28;20101;-83
2023/05/15 09:15:10;;;;;;;0.05;0.05;;;14.20;99.90;;;;;;4985740;28;20042;-83
2023/05/15 09:17:35;;;;;;;0.20;0.20;;;14.20;99.90;;;;;;4989709;28;20443;-84
2023/05/15 09:20:07;;;;;;;0.10;0.10;;;14.40;99.90;;;;;;4963095;28;20089;-84
2023/05/15 09:22:34;;;;;;;0.20;0.20;;;14.30;99.90;;;;;;4990086;28;20642;-83
2023/05/15 09:25:02;;;;;;;0.15;0.15;;;14.40;99.90;;;;;;4972039;28;20061;-84
2023/05/15 09:27:27;;;;;;;0.10;0.10;;;14.30;99.90;;;;;;4976318;28;20051;-83
2023/05/15 09:29:56;;;;;;;0.10;0.10;;;14.40;99.90;;;;;;4976893;28;20536;-84
2023/05/15 09:32:27;;;;;;;0.20;0.20;;;14.40;99.90;;;;;;4966559;28;20093;-84
2023/05/15 09:34:52;;;;;;;0.20;0.20;;;14.40;99.90;;;;;;4994342;28;20049;-84
2023/05/15 09:37:33;;;;;;;0.10;0.10;;;14.40;99.90;;;;;;4981452;28;20055;-84
2023/05/15 09:40:12;;;;;;;0.20;0.20;;;14.50;99.90;;;;;;4967559;28;20048;-83
2023/05/15 09:42:37;;;;;;;0.10;0.10;;;14.60;99.90;;;;;;4958429;28;20057;-82
2023/05/15 09:45:04;;;;;;;0.10;0.10;;;14.60;99.90;;;;;;4959404;28;20343;-83
2023/05/15 09:47:33;;;;;;;0.13;0.13;;;14.70;99.90;;;;;;4992906;28;20077;-84
2023/05/15 09:49:58;;;;;;;0.10;0.10;;;14.80;99.90;;;;;;4986531;28;20054;-81
2023/05/15 09:52:24;;;;;;;0.15;0.15;;;14.80;99.90;;;;;;4994519;28;20050;-83
2023/05/15 09:54:50;;;;;;;0.20;0.20;;;14.80;99.90;;;;;;4970000;28;20058;-81
2023/05/15 09:57:26;;;;;;;0.20;0.20;;;14.90;99.90;;;;;;4986750;28;20054;-79
2023/05/15 09:59:52;;;;;;;0.20;0.20;;;15.00;99.90;;;;;;4972219;28;20046;-79
2023/05/15 10:02:27;;;;;;;0.20;0.20;;;15.10;99.90;;;;;;4973711;28;20051;-79
2023/05/15 10:04:54;;;;;;;0.20;0.20;;;15.20;99.90;;;;;;4983847;28;20038;-80
2023/05/15 10:07:30;;;;;;;0.20;0.20;;;15.30;99.90;;;;;;4993157;28;20388;-79
2023/05/15 10:09:57;;;;;;;0.20;0.20;;;15.30;99.90;;;;;;4971571;28;20391;-80
2023/05/15 10:12:23;;;;;;;0.20;0.20;;;15.40;99.90;;;;;;4975628;28;20065;-79
2023/05/15 10:14:50;;;;;;;0.20;0.20;;;15.40;99.90;;;;;;4990038;28;20571;-79
2023/05/15 10:17:18;;;;;;;0.10;0.10;;;15.50;99.90;;;;;;4972358;28;20054;-82
2023/05/15 10:19:46;;;;;;;0.10;0.10;;;15.60;99.90;;;;;;4971517;28;20058;-81
2023/05/15 10:22:14;;;;;;;0.20;0.20;;;15.60;99.90;;;;;;4964111;28;20056;-81
2023/05/15 10:24:45;;;;;;;0.10;0.10;;;15.70;99.90;;;;;;4986808;28;20077;-81
2023/05/15 10:27:12;;;;;;;0.17;0.17;;;15.70;99.90;;;;;;4974513;28;20160;-82
2023/05/15 10:29:41;;;;;;;0.13;0.13;;;15.90;99.90;;;;;;4985562;28;20057;-81
2023/05/15 10:32:11;;;;;;;0.20;0.20;;;15.90;99.90;;;;;;4957197;28;20185;-80
2023/05/15 10:34:37;;;;;;;0.10;0.10;;;15.90;99.90;;;;;;4977077;28;20436;-81
2023/05/15 10:37:05;;;;;;;0.20;0.20;;;16.00;99.90;;;;;;4973476;28;20402;-80
2023/05/15 10:39:31;;;;;;;0.10;0.10;;;16.00;99.90;;;;;;4988426;28;20053;-81
2023/05/15 10:41:58;;;;;;;0.20;0.20;;;16.10;99.90;;;;;;4988032;28;20128;-79
2023/05/15 10:44:23;;;;;;;0.13;0.13;;;16.10;99.90;;;;;;4981989;28;20134;-80
2023/05/15 10:46:49;;;;;;;0.10;0.10;;;16.20;99.90;;;;;;4967174;28;20494;-80
2023/05/15 10:49:15;;;;;;;0.10;0.10;;;16.30;99.90;;;;;;4988051;28;20450;-80
2023/05/15 10:51:41;;;;;;;0.10;0.10;;;16.30;99.90;;;;;;4982489;28;20050;-80
2023/05/15 10:54:08;;;;;;;0.10;0.10;;;16.40;99.90;;;;;;4979065;28;20050;-81
2023/05/15 10:56:37;;;;;;;0.17;0.17;;;16.50;99.90;;;;;;4969688;28;20039;-80
2023/05/15 10:59:08;;;;;;;0.10;0.10;;;16.50;99.90;;;;;;4975599;28;20050;-80
2023/05/15 11:01:35;;;;;;;0.38;0.38;;;16.70;99.90;;;;;;4972670;28;20498;-80
2023/05/15 11:04:08;;;;;;;0.10;0.10;;;16.70;99.90;;;;;;4961939;28;20145;-80
2023/05/15 11:06:36;;;;;;;0.20;0.20;;;16.80;99.90;;;;;;4992264;28;20529;-80
2023/05/15 11:09:20;;;;;;;0.10;0.10;;;16.90;99.90;;;;;;4959526;28;20402;-80
2023/05/15 11:12:00;;;;;;;0.20;0.20;;;17.00;99.90;;;;;;4976107;28;20053;-83
2023/05/15 11:14:27;;;;;;;0.20;0.20;;;17.00;99.90;;;;;;4990153;28;20061;-83
2023/05/15 11:16:53;;;;;;;0.15;0.15;;;16.90;99.90;;;;;;4968011;28;20043;-83
2023/05/15 11:19:34;;;;;;;0.20;0.20;;;16.90;99.90;;;;;;4969068;28;20050;-85
2023/05/15 11:22:00;;;;;;;0.20;0.20;;;16.90;99.90;;;;;;4974671;28;20049;-83
2023/05/15 11:24:47;;;;;;;0.20;0.20;;;16.90;99.90;;;;;;4984513;28;20042;-82
2023/05/15 11:27:21;;;;;;;0.10;0.10;;;16.90;99.90;;;;;;4982883;28;20058;-83
2023/05/15 11:30:02;;;;;;;0.20;0.20;;;16.90;99.90;;;;;;4960651;28;20418;-84
2023/05/15 11:32:54;;;;;;;0.20;0.20;;;16.90;99.90;;;;;;4994145;28;20098;-81
2023/05/15 11:35:42;;;;;;;0.20;0.20;;;17.00;99.90;;;;;;4970121;28;20061;-82
2023/05/15 11:38:16;;;;;;;0.13;0.13;;;17.00;99.90;;;;;;4983764;28;20050;-81
2023/05/15 11:40:49;;;;;;;0.13;0.13;;;17.00;99.90;;;;;;4982900;28;20058;-82
2023/05/15 11:43:24;;;;;;;0.20;0.20;;;17.10;99.90;;;;;;4974574;28;20419;-81
2023/05/15 11:46:13;;;;;;;0.10;0.10;;;17.10;99.90;;;;;;4981882;28;20147;-81
2023/05/15 11:48:49;;;;;;;0.20;0.20;;;17.10;99.90;;;;;;4974614;28;20525;-82
2023/05/15 11:51:26;;;;;;;0.20;0.20;;;17.10;99.90;;;;;;4962015;28;20054;-81
2023/05/15 11:53:53;;;;;;;0.20;0.20;;;17.00;99.90;;;;;;4981833;28;20039;-81
2023/05/15 11:56:21;;;;;;;0.20;0.20;;;17.00;99.90;;;;;;4955392;28;20142;-82
2023/05/15 11:58:55;;;;;;;0.20;0.20;;;17.00;99.90;;;;;;4954702;28;20152;-81
2023/05/15 12:01:21;;;;;;;0.10;0.10;;;17.00;99.90;;;;;;4967319;28;20057;-82
2023/05/15 12:03:48;;;;;;;0.17;0.17;;;17.00;99.90;;;;;;4972951;28;20046;-81
2023/05/15 12:06:14;;;;;;;0.20;0.20;;;17.00;99.90;;;;;;4963969;28;20390;-82
2023/05/15 12:08:43;;;;;;;0.20;0.20;;;16.90;99.90;;;;;;4991907;28;20050;-82
2023/05/15 12:11:10;;;;;;;0.20;0.20;;;17.00;99.90;;;;;;4988605;28;20106;-81
2023/05/15 12:13:36;;;;;;;0.10;0.10;;;16.90;99.90;;;;;;4973850;28;20487;-82
2023/05/15 12:16:03;;;;;;;0.20;0.20;;;16.90;99.90;;;;;;4956516;28;20051;-82
2023/05/15 12:18:34;;;;;;;0.10;0.10;;;16.90;99.90;;;;;;4972268;28;20134;-82
2023/05/15 12:21:00;;;;;;;0.20;0.20;;;16.90;99.90;;;;;;4979225;28;20406;-82
2023/05/15 12:23:27;;;;;;;0.10;0.10;;;16.90;99.90;;;;;;4975109;28;20050;-82
2023/05/15 12:25:58;;;;;;;0.10;0.10;;;16.90;99.90;;;;;;4986425;28;20404;-82
2023/05/15 12:28:25;;;;;;;0.15;0.15;;;16.90;99.90;;;;;;4964673;28;20125;-82
2023/05/15 12:30:51;;;;;;;0.10;0.10;;;16.90;99.90;;;;;;4989527;28;20072;-83
2023/05/15 12:33:17;;;;;;;0.20;0.20;;;16.90;99.90;;;;;;4974005;28;20049;-83
2023/05/15 12:35:50;;;;;;;0.10;0.10;;;16.90;99.90;;;;;;4953923;28;20058;-82
2023/05/15 12:38:16;;;;;;;0.10;0.10;;;16.90;99.90;;;;;;4964641;28;20050;-82
2023/05/15 12:40:51;;;;;;;0.20;0.20;;;17.00;99.90;;;;;;4990015;28;20398;-83
2023/05/15 12:43:16;;;;;;;0.20;0.20;;;17.00;99.90;;;;;;4973679;28;20050;-81
2023/05/15 12:45:42;;;;;;;0.20;0.20;;;17.10;99.90;;;;;;4971653;28;20073;-82
2023/05/15 12:48:16;;;;;;;0.20;0.20;;;17.10;99.90;;;;;;4982754;28;20387;-82
2023/05/15 12:50:44;;;;;;;0.20;0.20;;;17.00;99.90;;;;;;4994585;28;20409;-82
2023/05/15 12:53:15;;;;;;;0.10;0.10;;;17.10;99.90;;;;;;4996862;28;20061;-82
2023/05/15 12:55:42;;;;;;;0.20;0.20;;;17.10;99.90;;;;;;4973092;28;20257;-83